International Virtual Aviation Organisation

Russian Federation and Kazakhstan MCD

 

Карточка аэропорта URWA

Внимание!
Информация на этой странице в стадии наполнения.
Если вы не увидели какой-то информации, или заметили неточность - пожалуйста сообщите нам!
Спасибо!
Команда RU-STAFF
Название аэропортаАстрахань
Название аэропорта (англ.)Astrakhan
Превышение-65 ft. (-19.8 m.)
Координаты46°16.998', 48°0.38399999999996'
Высота перехода600m
Эшелон переходаFL040
Коды ответчика1010-1017
Зона ОрВДРостов-на-Дону РПИ (URRV)
Данные METARURWA 242300Z 24006MPS CAVOK 02/M01 Q1013 R27/290050 NOSIG RMK QFE762/1016
Проноз погоды (TAF)NODATA
NOTAMshow/hide NOTAM
AWOS   TABLE

Информация о ВПП

ВПП Длина ВПП (м.) Покрытие Курс ВПП Частота ILS
093200Асфальтобетон89110.3
273200Асфальтобетон269110.5
111950Трава113 
291950Трава293 

Диспетчерские позиции

Позывной Наименование органа УВД Частота
URWA_APPАстрахань-Подход126.0
URWA_R_APPАстрахань-Круг120.6
URWA_TWRАстрахань-Вышка118.6



Спутниковое изображение